Time;durP1;ratioP1;P1;durP2;ratioP2;P2;SDS_P1;SDS_P2;PMS_P1;PMS_P2;Temp;Humidity;BMP_temperature;BMP_pressure;BME280_temperature;BME280_humidity;BME280_pressure;Samples;Min_cycle;Max_cycle;Signal;HPM_P1;HPM_P2
2022/03/31 00:00:43;;;;;;;46.83;28.30;;;;;;;;;;5093295;28;20882;-70
2022/03/31 00:03:11;;;;;;;51.63;29.67;;;;;;;;;;5093435;28;21057;-70
2022/03/31 00:05:38;;;;;;;49.40;30.70;;;;;;;;;;5093193;28;20455;-70
2022/03/31 00:08:07;;;;;;;50.27;30.63;;;;;;;;;;5093127;28;20473;-70
2022/03/31 00:10:34;;;;;;;45.93;30.10;;;;;;;;;;5093022;28;20439;-70
2022/03/31 00:13:02;;;;;;;62.93;30.27;;;;;;;;;;5093175;28;20459;-70
2022/03/31 00:15:30;;;;;;;52.20;30.80;;;;;;;;;;5093045;28;20450;-70
2022/03/31 00:17:59;;;;;;;58.03;34.50;;;;;;;;;;5093063;28;20481;-69
2022/03/31 00:20:26;;;;;;;58.03;37.87;;;;;;;;;;5093069;28;20510;-70
2022/03/31 00:22:53;;;;;;;53.13;34.00;;;;;;;;;;5092788;28;20458;-70
2022/03/31 00:25:22;;;;;;;65.23;35.23;;;;;;;;;;5092769;28;20454;-70
2022/03/31 00:27:49;;;;;;;51.43;32.43;;;;;;;;;;5093224;28;20998;-69
2022/03/31 00:30:16;;;;;;;56.00;29.53;;;;;;;;;;5093165;28;20454;-70
2022/03/31 00:32:44;;;;;;;54.00;28.53;;;;;;;;;;5092891;28;20458;-70
2022/03/31 00:35:13;;;;;;;46.97;29.80;;;;;;;;;;5092708;28;20455;-70
2022/03/31 00:37:41;;;;;;;47.80;28.33;;;;;;;;;;5093002;28;20967;-70
2022/03/31 00:40:09;;;;;;;46.00;27.10;;;;;;;;;;5092989;28;20447;-70
2022/03/31 00:42:40;;;;;;;43.37;27.37;;;;;;;;;;5093110;28;20450;-70
2022/03/31 00:45:12;;;;;;;48.30;28.27;;;;;;;;;;5092964;28;20927;-69
2022/03/31 00:47:39;;;;;;;43.13;27.90;;;;;;;;;;5092963;28;20497;-69
2022/03/31 00:50:06;;;;;;;44.00;28.27;;;;;;;;;;5092696;28;20457;-69
2022/03/31 00:52:35;;;;;;;53.57;27.97;;;;;;;;;;5092446;28;20458;-70
2022/03/31 00:55:02;;;;;;;55.43;30.40;;;;;;;;;;5094267;28;20435;-70
2022/03/31 00:57:29;;;;;;;52.30;32.33;;;;;;;;;;5096756;28;20450;-69
2022/03/31 00:59:57;;;;;;;42.73;29.67;;;;;;;;;;5096911;28;20457;-70
2022/03/31 01:02:24;;;;;;;44.43;29.97;;;;;;;;;;5096411;28;20489;-70
2022/03/31 01:04:53;;;;;;;45.77;27.20;;;;;;;;;;5096565;28;20966;-69
2022/03/31 01:07:20;;;;;;;44.83;25.47;;;;;;;;;;5096686;28;20474;-70
2022/03/31 01:09:49;;;;;;;49.20;26.47;;;;;;;;;;5096726;28;20466;-70
2022/03/31 01:12:16;;;;;;;37.13;23.40;;;;;;;;;;5096566;28;20936;-69
2022/03/31 01:14:43;;;;;;;39.40;24.07;;;;;;;;;;5096482;28;20545;-69
2022/03/31 01:17:10;;;;;;;38.87;23.20;;;;;;;;;;5096281;28;20450;-69
2022/03/31 01:19:37;;;;;;;41.10;23.10;;;;;;;;;;5096356;28;20979;-69
2022/03/31 01:22:05;;;;;;;38.47;22.03;;;;;;;;;;5096109;28;20486;-69
2022/03/31 01:24:34;;;;;;;35.27;22.17;;;;;;;;;;5096267;28;20497;-70
2022/03/31 01:27:01;;;;;;;36.93;22.07;;;;;;;;;;5096377;28;20458;-70
2022/03/31 01:29:28;;;;;;;36.43;22.20;;;;;;;;;;5096261;28;20470;-70
2022/03/31 01:31:57;;;;;;;35.33;21.00;;;;;;;;;;5096286;28;20442;-69
2022/03/31 01:34:24;;;;;;;38.70;21.43;;;;;;;;;;5096078;28;20462;-69
2022/03/31 01:36:52;;;;;;;33.83;18.13;;;;;;;;;;5095788;28;20463;-70
2022/03/31 01:39:19;;;;;;;34.23;21.37;;;;;;;;;;5096070;28;20462;-70
2022/03/31 01:41:47;;;;;;;29.43;17.17;;;;;;;;;;5096074;28;21002;-70
2022/03/31 01:44:14;;;;;;;27.47;17.67;;;;;;;;;;5095992;28;20446;-70
2022/03/31 01:46:41;;;;;;;41.43;19.93;;;;;;;;;;5095878;28;20458;-70
2022/03/31 01:49:10;;;;;;;34.93;19.23;;;;;;;;;;5095834;28;20482;-70
2022/03/31 01:51:37;;;;;;;32.10;20.37;;;;;;;;;;5095821;28;21027;-70
2022/03/31 01:54:04;;;;;;;28.20;17.87;;;;;;;;;;5095021;28;20458;-69
2022/03/31 01:56:32;;;;;;;35.53;18.80;;;;;;;;;;5095760;28;20801;-70
2022/03/31 01:59:00;;;;;;;27.80;18.10;;;;;;;;;;5095606;28;20505;-69
2022/03/31 02:01:27;;;;;;;32.40;19.40;;;;;;;;;;5095703;28;20480;-70
2022/03/31 02:03:55;;;;;;;32.37;20.30;;;;;;;;;;5095330;28;20508;-69
2022/03/31 02:06:22;;;;;;;29.77;18.67;;;;;;;;;;5095584;28;20451;-69
2022/03/31 02:08:49;;;;;;;34.80;19.50;;;;;;;;;;5095552;28;20475;-69
2022/03/31 02:11:16;;;;;;;35.80;20.93;;;;;;;;;;5095201;28;20451;-69
2022/03/31 02:13:44;;;;;;;31.60;21.67;;;;;;;;;;5095373;28;20458;-70
2022/03/31 02:16:12;;;;;;;38.47;20.97;;;;;;;;;;5095358;28;20472;-70
2022/03/31 02:18:39;;;;;;;32.07;20.80;;;;;;;;;;5095282;28;20470;-70
2022/03/31 02:21:07;;;;;;;38.47;22.63;;;;;;;;;;5095211;28;20482;-70
2022/03/31 02:23:34;;;;;;;35.40;21.30;;;;;;;;;;5094866;28;20967;-70
2022/03/31 02:26:01;;;;;;;37.63;22.43;;;;;;;;;;5095184;28;20853;-69
2022/03/31 02:28:28;;;;;;;39.10;22.57;;;;;;;;;;5095023;28;20474;-70
2022/03/31 02:30:55;;;;;;;33.27;21.67;;;;;;;;;;5094855;28;20443;-70
2022/03/31 02:33:24;;;;;;;35.77;22.90;;;;;;;;;;5095026;28;20504;-69
2022/03/31 02:35:51;;;;;;;35.27;21.30;;;;;;;;;;5094959;28;20457;-70
2022/03/31 02:38:18;;;;;;;33.70;21.37;;;;;;;;;;5094800;28;20844;-70
2022/03/31 02:40:45;;;;;;;39.13;24.83;;;;;;;;;;5094714;28;20458;-70
2022/03/31 02:43:12;;;;;;;33.83;23.57;;;;;;;;;;5094772;28;20447;-70
2022/03/31 02:45:39;;;;;;;42.43;24.47;;;;;;;;;;5094704;28;20454;-70
2022/03/31 02:48:06;;;;;;;39.77;22.67;;;;;;;;;;5094643;28;20470;-70
2022/03/31 02:50:35;;;;;;;39.73;25.00;;;;;;;;;;5094585;28;20826;-70
2022/03/31 02:55:47;;;;;;;37.30;22.50;;;;;;;;;;5094363;28;20521;-70
2022/03/31 02:58:14;;;;;;;40.73;24.10;;;;;;;;;;5094486;28;21002;-70
2022/03/31 03:00:41;;;;;;;36.57;21.80;;;;;;;;;;5094502;28;20446;-69
2022/03/31 03:03:11;;;;;;;40.67;24.40;;;;;;;;;;5094394;28;20447;-70
2022/03/31 03:05:41;;;;;;;44.63;24.67;;;;;;;;;;5094345;28;20966;-69
2022/03/31 03:08:09;;;;;;;36.33;21.43;;;;;;;;;;5094176;28;20807;-70
2022/03/31 03:10:37;;;;;;;39.03;23.70;;;;;;;;;;5094028;28;20435;-71
2022/03/31 03:13:04;;;;;;;40.00;21.50;;;;;;;;;;5094141;28;20470;-70
2022/03/31 03:15:31;;;;;;;40.27;24.30;;;;;;;;;;5094184;28;20935;-70
2022/03/31 03:17:58;;;;;;;39.60;24.43;;;;;;;;;;5093795;28;20466;-70
2022/03/31 03:20:26;;;;;;;48.83;26.27;;;;;;;;;;5093889;28;20453;-70
2022/03/31 03:22:55;;;;;;;41.10;24.07;;;;;;;;;;5093708;28;20493;-70
2022/03/31 03:25:23;;;;;;;41.13;24.57;;;;;;;;;;5094116;28;20457;-70
2022/03/31 03:27:51;;;;;;;37.03;23.63;;;;;;;;;;5093964;28;20983;-70
2022/03/31 03:30:18;;;;;;;41.63;24.50;;;;;;;;;;5094057;28;20959;-70
2022/03/31 03:32:46;;;;;;;41.67;25.80;;;;;;;;;;5093896;28;20446;-70
2022/03/31 03:35:13;;;;;;;37.40;24.17;;;;;;;;;;5093836;28;20947;-70
2022/03/31 03:37:42;;;;;;;38.47;23.23;;;;;;;;;;5093858;28;20475;-70
2022/03/31 03:40:12;;;;;;;40.03;23.80;;;;;;;;;;5093966;28;20427;-70
2022/03/31 03:42:39;;;;;;;42.20;25.67;;;;;;;;;;5093811;28;20478;-70
2022/03/31 03:45:07;;;;;;;40.63;24.90;;;;;;;;;;5093702;28;20450;-70
2022/03/31 03:47:34;;;;;;;37.10;23.73;;;;;;;;;;5093697;28;20861;-70
2022/03/31 03:50:02;;;;;;;49.50;25.87;;;;;;;;;;5093445;28;20450;-70
2022/03/31 03:52:30;;;;;;;43.07;25.97;;;;;;;;;;5093418;28;20435;-70
2022/03/31 03:54:57;;;;;;;46.60;30.27;;;;;;;;;;5093568;28;20496;-70
2022/03/31 03:57:26;;;;;;;47.40;28.27;;;;;;;;;;5093592;28;20446;-70
2022/03/31 03:59:53;;;;;;;41.80;24.80;;;;;;;;;;5093504;28;20457;-70
2022/03/31 04:02:21;;;;;;;37.70;22.03;;;;;;;;;;5093190;28;20489;-70
2022/03/31 04:04:48;;;;;;;45.60;28.00;;;;;;;;;;5093487;28;20892;-70
2022/03/31 04:07:15;;;;;;;42.70;25.20;;;;;;;;;;5093252;28;20451;-70
2022/03/31 04:09:42;;;;;;;38.77;25.47;;;;;;;;;;5093508;28;20904;-70
2022/03/31 04:12:09;;;;;;;38.00;24.93;;;;;;;;;;5093507;28;20451;-70
2022/03/31 04:14:38;;;;;;;48.80;25.20;;;;;;;;;;5092834;28;20446;-70
2022/03/31 04:17:05;;;;;;;44.33;26.10;;;;;;;;;;5093021;28;20446;-69
2022/03/31 04:19:33;;;;;;;43.83;26.37;;;;;;;;;;5093254;28;20980;-70
2022/03/31 04:22:00;;;;;;;47.23;25.70;;;;;;;;;;5093076;28;20498;-70
2022/03/31 04:24:27;;;;;;;44.30;24.93;;;;;;;;;;5093236;28;20932;-70
2022/03/31 04:26:54;;;;;;;42.60;26.60;;;;;;;;;;5093259;28;20458;-70
2022/03/31 04:29:21;;;;;;;45.37;27.07;;;;;;;;;;5093447;28;20469;-70
2022/03/31 04:31:49;;;;;;;46.73;24.83;;;;;;;;;;5097468;28;20443;-70
2022/03/31 04:34:18;;;;;;;37.37;23.80;;;;;;;;;;5097101;28;20450;-70
2022/03/31 04:36:45;;;;;;;51.80;25.67;;;;;;;;;;5097322;28;20461;-70
2022/03/31 04:39:13;;;;;;;42.40;24.80;;;;;;;;;;5097151;28;20959;-70
2022/03/31 04:41:40;;;;;;;40.07;25.27;;;;;;;;;;5097081;28;20862;-70
2022/03/31 04:44:07;;;;;;;37.60;25.67;;;;;;;;;;5096892;28;20457;-70
2022/03/31 04:46:35;;;;;;;43.93;25.20;;;;;;;;;;5097213;28;20457;-70
2022/03/31 04:49:04;;;;;;;49.60;26.17;;;;;;;;;;5096913;28;20474;-70
2022/03/31 04:51:32;;;;;;;44.73;25.60;;;;;;;;;;5096947;28;20451;-70
2022/03/31 04:53:59;;;;;;;43.63;25.93;;;;;;;;;;5096455;28;20450;-70
2022/03/31 04:56:26;;;;;;;47.00;25.90;;;;;;;;;;5096592;28;20442;-70
2022/03/31 04:58:53;;;;;;;40.57;25.60;;;;;;;;;;5096804;28;20583;-70
2022/03/31 05:01:22;;;;;;;47.53;25.20;;;;;;;;;;5096752;28;20948;-70
2022/03/31 05:03:49;;;;;;;43.73;25.53;;;;;;;;;;5096363;28;20454;-72
2022/03/31 05:06:18;;;;;;;44.30;24.00;;;;;;;;;;5096698;28;20489;-70
2022/03/31 05:08:45;;;;;;;48.37;26.40;;;;;;;;;;5096571;28;20467;-70
2022/03/31 05:11:12;;;;;;;48.07;25.30;;;;;;;;;;5096374;28;20489;-70
2022/03/31 05:13:39;;;;;;;40.97;24.20;;;;;;;;;;5096711;28;20446;-70
2022/03/31 05:16:06;;;;;;;41.87;24.00;;;;;;;;;;5096519;28;20450;-70
2022/03/31 05:18:33;;;;;;;42.50;24.90;;;;;;;;;;5096572;28;20490;-70
2022/03/31 05:21:01;;;;;;;48.53;26.80;;;;;;;;;;5096607;28;20458;-70
2022/03/31 05:23:30;;;;;;;40.80;25.30;;;;;;;;;;5095016;28;20555;-69
2022/03/31 05:25:57;;;;;;;44.93;25.00;;;;;;;;;;5094925;28;20446;-70
2022/03/31 05:28:24;;;;;;;44.23;25.63;;;;;;;;;;5095162;28;20493;-70
2022/03/31 05:30:51;;;;;;;41.40;24.60;;;;;;;;;;5095198;28;20455;-70
2022/03/31 05:33:19;;;;;;;42.10;24.63;;;;;;;;;;5095150;28;20446;-70
2022/03/31 05:35:46;;;;;;;41.80;24.00;;;;;;;;;;5095007;28;20451;-70
2022/03/31 05:38:13;;;;;;;41.17;24.57;;;;;;;;;;5095116;28;20842;-70
2022/03/31 05:40:42;;;;;;;45.03;24.40;;;;;;;;;;5094584;28;20451;-70
2022/03/31 05:43:09;;;;;;;44.20;24.87;;;;;;;;;;5094846;28;20487;-70
2022/03/31 05:45:36;;;;;;;40.67;23.40;;;;;;;;;;5094947;28;20453;-70
2022/03/31 05:48:03;;;;;;;34.20;22.53;;;;;;;;;;5094543;28;20470;-70
2022/03/31 05:50:31;;;;;;;45.80;25.13;;;;;;;;;;5094762;28;20817;-70
2022/03/31 05:52:58;;;;;;;42.10;23.53;;;;;;;;;;5094629;28;20455;-70
2022/03/31 05:55:25;;;;;;;48.23;25.13;;;;;;;;;;5094566;28;20450;-70
2022/03/31 05:57:53;;;;;;;42.00;25.77;;;;;;;;;;5094640;28;20994;-70
2022/03/31 06:00:21;;;;;;;40.80;24.97;;;;;;;;;;5094741;28;20442;-70
2022/03/31 06:02:48;;;;;;;40.13;24.40;;;;;;;;;;5094666;28;20489;-70
2022/03/31 06:05:16;;;;;;;43.57;25.47;;;;;;;;;;5094466;28;20451;-70
2022/03/31 06:07:43;;;;;;;46.37;24.97;;;;;;;;;;5094503;28;20470;-70
2022/03/31 06:10:10;;;;;;;40.30;22.00;;;;;;;;;;5094261;28;20442;-70
2022/03/31 06:12:37;;;;;;;36.23;21.63;;;;;;;;;;5094444;28;20462;-69
2022/03/31 06:15:07;;;;;;;42.27;25.03;;;;;;;;;;5094080;28;20795;-70
2022/03/31 06:17:34;;;;;;;39.30;23.20;;;;;;;;;;5093845;28;20509;-70
2022/03/31 06:20:01;;;;;;;41.63;21.40;;;;;;;;;;5087913;28;20454;-70
2022/03/31 06:22:28;;;;;;;35.87;21.73;;;;;;;;;;5056879;28;1070781;-70
2022/03/31 06:24:55;;;;;;;40.50;24.83;;;;;;;;;;5095062;28;20220;-70
2022/03/31 06:27:23;;;;;;;39.27;24.30;;;;;;;;;;5095149;28;20457;-70
2022/03/31 06:29:51;;;;;;;37.87;24.93;;;;;;;;;;5094993;28;20447;-71
2022/03/31 06:32:20;;;;;;;38.03;22.23;;;;;;;;;;5094809;28;20450;-70
2022/03/31 06:34:47;;;;;;;31.83;21.40;;;;;;;;;;5094997;28;20454;-70
2022/03/31 06:37:14;;;;;;;36.97;21.87;;;;;;;;;;5095050;28;20457;-70
2022/03/31 06:39:41;;;;;;;35.03;23.37;;;;;;;;;;5094914;28;20477;-71
2022/03/31 06:42:08;;;;;;;46.00;29.83;;;;;;;;;;5094899;28;20458;-71
2022/03/31 06:44:35;;;;;;;55.60;32.40;;;;;;;;;;5094765;28;20458;-70
2022/03/31 06:47:02;;;;;;;61.93;35.30;;;;;;;;;;5094845;28;20453;-70
2022/03/31 06:49:31;;;;;;;54.20;35.00;;;;;;;;;;5094469;28;20475;-70
2022/03/31 06:51:58;;;;;;;57.20;29.90;;;;;;;;;;5094196;28;20967;-70
2022/03/31 06:54:26;;;;;;;43.13;26.77;;;;;;;;;;5094327;28;20452;-70
2022/03/31 06:56:55;;;;;;;42.70;25.50;;;;;;;;;;5094564;28;20524;-70
2022/03/31 06:59:22;;;;;;;46.07;27.50;;;;;;;;;;5094586;28;20471;-71
2022/03/31 07:01:49;;;;;;;47.90;26.23;;;;;;;;;;5094670;28;20935;-70
2022/03/31 07:04:16;;;;;;;38.17;25.73;;;;;;;;;;5094421;28;20486;-71
2022/03/31 07:06:45;;;;;;;54.70;27.83;;;;;;;;;;5094558;28;20450;-70
2022/03/31 07:09:12;;;;;;;43.60;26.43;;;;;;;;;;5094510;28;20860;-70
2022/03/31 07:11:39;;;;;;;39.07;24.00;;;;;;;;;;5086634;28;20451;-70
2022/03/31 07:14:06;;;;;;;45.00;25.57;;;;;;;;;;5092579;28;20454;-70
2022/03/31 07:16:33;;;;;;;79.40;44.10;;;;;;;;;;5093120;28;20493;-70
2022/03/31 07:19:03;;;;;;;46.43;28.93;;;;;;;;;;5092742;28;20841;-70
2022/03/31 07:21:30;;;;;;;46.10;26.23;;;;;;;;;;5092434;28;20490;-71
2022/03/31 07:24:00;;;;;;;39.50;24.70;;;;;;;;;;5092820;28;20471;-70
2022/03/31 07:26:27;;;;;;;45.80;26.23;;;;;;;;;;5092677;28;20430;-70
2022/03/31 07:28:54;;;;;;;44.00;25.87;;;;;;;;;;5092769;28;21005;-69
2022/03/31 07:31:21;;;;;;;49.97;28.17;;;;;;;;;;5092761;28;20792;-70
2022/03/31 07:33:48;;;;;;;52.93;27.30;;;;;;;;;;5084144;28;20855;-70
2022/03/31 07:36:15;;;;;;;55.10;27.60;;;;;;;;;;5073262;28;20451;-70
2022/03/31 07:38:42;;;;;;;49.20;28.37;;;;;;;;;;5073213;28;20472;-70
2022/03/31 07:41:12;;;;;;;45.97;28.10;;;;;;;;;;5072553;28;20459;-70
2022/03/31 07:43:39;;;;;;;40.57;23.27;;;;;;;;;;5073446;28;20527;-70
2022/03/31 07:46:06;;;;;;;67.43;35.50;;;;;;;;;;5073314;28;20451;-71
2022/03/31 07:48:33;;;;;;;49.33;25.83;;;;;;;;;;5073554;28;20506;-71
2022/03/31 07:51:01;;;;;;;43.27;25.23;;;;;;;;;;5073620;28;20522;-70
2022/03/31 07:53:32;;;;;;;48.03;28.10;;;;;;;;;;5072966;28;20825;-70
2022/03/31 07:56:00;;;;;;;43.63;27.57;;;;;;;;;;5073492;28;20444;-70
2022/03/31 07:58:28;;;;;;;40.43;25.77;;;;;;;;;;5073380;28;20471;-70
2022/03/31 08:00:55;;;;;;;43.70;24.33;;;;;;;;;;5073364;28;20487;-70
2022/03/31 08:03:23;;;;;;;39.80;25.37;;;;;;;;;;5073289;28;20847;-70
2022/03/31 08:05:50;;;;;;;45.97;26.40;;;;;;;;;;5077550;28;20504;-70
2022/03/31 08:08:17;;;;;;;45.17;30.13;;;;;;;;;;5090626;28;20477;-69
2022/03/31 08:10:44;;;;;;;42.50;27.90;;;;;;;;;;5092157;28;20450;-71
2022/03/31 08:13:12;;;;;;;56.77;39.40;;;;;;;;;;5092047;28;20455;-70
2022/03/31 08:15:41;;;;;;;48.13;31.33;;;;;;;;;;5080733;28;20494;-70
2022/03/31 08:18:08;;;;;;;39.93;25.53;;;;;;;;;;5071542;28;20482;-69
2022/03/31 08:20:36;;;;;;;44.87;26.37;;;;;;;;;;5071835;28;20874;-70
2022/03/31 08:23:03;;;;;;;47.83;27.93;;;;;;;;;;5071482;28;20907;-70
2022/03/31 08:25:30;;;;;;;53.53;27.70;;;;;;;;;;5071877;28;20462;-70
2022/03/31 08:27:57;;;;;;;42.67;25.23;;;;;;;;;;5071780;28;20980;-70
2022/03/31 08:30:25;;;;;;;45.40;26.90;;;;;;;;;;5071848;28;20447;-69
2022/03/31 08:32:53;;;;;;;39.23;24.20;;;;;;;;;;5071400;28;20448;-70
2022/03/31 08:35:20;;;;;;;40.47;23.97;;;;;;;;;;5071634;28;20817;-70
2022/03/31 08:37:48;;;;;;;47.17;25.87;;;;;;;;;;5071400;28;20478;-70
2022/03/31 08:40:15;;;;;;;39.10;23.70;;;;;;;;;;5071759;28;20447;-70
2022/03/31 08:42:43;;;;;;;52.47;33.17;;;;;;;;;;5071597;28;20803;-70
2022/03/31 08:45:12;;;;;;;51.70;32.70;;;;;;;;;;5071671;28;20451;-70
2022/03/31 08:47:41;;;;;;;39.13;24.93;;;;;;;;;;5071668;28;20467;-70
2022/03/31 08:50:10;;;;;;;38.03;23.93;;;;;;;;;;5071446;28;20455;-70
2022/03/31 08:52:38;;;;;;;44.03;25.47;;;;;;;;;;5071298;28;20452;-71
2022/03/31 08:55:05;;;;;;;366.90;237.23;;;;;;;;;;5071534;28;20443;-70
2022/03/31 08:57:39;;;;;;;50.63;27.20;;;;;;;;;;5071119;28;20459;-70
2022/03/31 09:00:07;;;;;;;41.23;24.67;;;;;;;;;;5071103;28;20452;-70
2022/03/31 09:02:34;;;;;;;39.27;24.20;;;;;;;;;;5071535;28;20459;-70
2022/03/31 09:05:02;;;;;;;39.80;25.27;;;;;;;;;;5071359;28;20491;-70
2022/03/31 09:07:31;;;;;;;41.70;25.53;;;;;;;;;;5071386;28;20961;-70
2022/03/31 09:09:58;;;;;;;40.80;25.97;;;;;;;;;;5071688;28;20444;-70
2022/03/31 09:12:27;;;;;;;41.53;25.97;;;;;;;;;;5071468;28;20459;-70
2022/03/31 09:14:55;;;;;;;37.27;23.20;;;;;;;;;;5071092;28;20461;-70
2022/03/31 09:17:22;;;;;;;42.40;25.87;;;;;;;;;;5074323;28;20455;-70
2022/03/31 09:19:57;;;;;;;47.67;24.70;;;;;;;;;;5074870;28;20932;-69
2022/03/31 09:22:24;;;;;;;39.83;24.30;;;;;;;;;;5074774;28;20463;-69
2022/03/31 09:25:02;;;;;;;48.83;25.33;;;;;;;;;;5074772;28;20843;-70
2022/03/31 09:27:29;;;;;;;43.77;27.13;;;;;;;;;;5075376;28;20431;-70
2022/03/31 09:30:05;;;;;;;54.50;26.83;;;;;;;;;;5075937;28;20811;-70
2022/03/31 09:32:32;;;;;;;41.50;23.93;;;;;;;;;;5076159;28;20809;-69
2022/03/31 09:35:06;;;;;;;36.83;22.27;;;;;;;;;;5075885;28;20439;-70
2022/03/31 09:37:33;;;;;;;41.17;26.60;;;;;;;;;;5075886;28;20921;-70
2022/03/31 09:40:02;;;;;;;40.93;28.07;;;;;;;;;;5075643;28;20456;-71
2022/03/31 09:42:29;;;;;;;36.17;23.10;;;;;;;;;;5075879;28;20455;-70
2022/03/31 09:45:00;;;;;;;36.80;23.20;;;;;;;;;;5075707;28;21030;-70
2022/03/31 09:47:28;;;;;;;39.03;25.90;;;;;;;;;;5075751;28;20440;-70
2022/03/31 09:49:55;;;;;;;36.90;23.40;;;;;;;;;;5075701;28;20448;-70
2022/03/31 09:52:23;;;;;;;39.50;23.70;;;;;;;;;;5075495;28;20451;-70
2022/03/31 09:54:51;;;;;;;44.03;25.43;;;;;;;;;;5075446;28;20439;-70
2022/03/31 09:57:22;;;;;;;43.30;26.03;;;;;;;;;;5075497;28;20509;-70
2022/03/31 09:59:51;;;;;;;37.57;24.70;;;;;;;;;;5075662;28;20905;-70
2022/03/31 10:02:19;;;;;;;36.63;25.10;;;;;;;;;;5075463;28;20455;-70
2022/03/31 10:04:47;;;;;;;42.60;25.77;;;;;;;;;;5075379;28;20483;-70
2022/03/31 10:07:14;;;;;;;40.23;23.67;;;;;;;;;;5075482;28;20930;-70
2022/03/31 10:09:43;;;;;;;39.67;24.30;;;;;;;;;;5075325;28;20508;-70
2022/03/31 10:12:15;;;;;;;37.67;23.83;;;;;;;;;;5075344;28;20462;-70
2022/03/31 10:14:45;;;;;;;38.67;25.27;;;;;;;;;;5074924;28;20439;-70
2022/03/31 10:17:13;;;;;;;38.57;22.87;;;;;;;;;;5075250;28;20566;-70
2022/03/31 10:19:41;;;;;;;38.43;23.20;;;;;;;;;;5075168;28;20486;-70
2022/03/31 10:24:40;;;;;;;34.00;22.53;;;;;;;;;;5074893;28;20459;-70
2022/03/31 10:24:56;;;;;;;33.07;22.47;;;;;;;;;;5074707;28;20468;-71
2022/03/31 10:27:28;;;;;;;36.13;23.20;;;;;;;;;;5073820;28;20501;-70
2022/03/31 10:29:56;;;;;;;37.27;23.60;;;;;;;;;;5076110;28;20489;-69
2022/03/31 10:32:24;;;;;;;37.17;21.90;;;;;;;;;;5092464;28;20451;-70
2022/03/31 10:34:53;;;;;;;33.20;21.00;;;;;;;;;;5093496;28;20447;-70
2022/03/31 10:37:32;;;;;;;32.10;21.27;;;;;;;;;;5093425;28;20469;-70
2022/03/31 10:40:00;;;;;;;33.87;22.80;;;;;;;;;;5093631;28;20431;-70
2022/03/31 10:42:27;;;;;;;32.33;21.70;;;;;;;;;;5093668;28;20454;-70
2022/03/31 10:45:06;;;;;;;38.27;21.30;;;;;;;;;;5093413;28;20475;-70
2022/03/31 10:47:35;;;;;;;31.50;20.70;;;;;;;;;;5093964;28;20447;-70
2022/03/31 10:50:02;;;;;;;30.27;19.00;;;;;;;;;;5093648;28;20431;-70
2022/03/31 10:52:32;;;;;;;29.63;20.57;;;;;;;;;;5093258;28;20935;-69
2022/03/31 10:55:10;;;;;;;28.70;19.53;;;;;;;;;;5093283;28;20521;-70
2022/03/31 10:57:41;;;;;;;33.30;21.17;;;;;;;;;;5093047;28;20474;-70
2022/03/31 11:00:10;;;;;;;29.60;19.57;;;;;;;;;;5093389;28;20928;-70
2022/03/31 11:02:40;;;;;;;33.10;20.90;;;;;;;;;;5093112;28;20809;-70
2022/03/31 11:05:08;;;;;;;35.50;19.30;;;;;;;;;;5092654;28;20497;-70
2022/03/31 11:07:35;;;;;;;30.80;20.40;;;;;;;;;;5093139;28;20451;-70
2022/03/31 11:10:02;;;;;;;31.27;21.23;;;;;;;;;;5092848;28;20461;-70
2022/03/31 11:12:30;;;;;;;30.77;19.27;;;;;;;;;;5093140;28;20446;-69
2022/03/31 11:14:59;;;;;;;31.70;20.27;;;;;;;;;;5093071;28;20447;-70
2022/03/31 11:17:28;;;;;;;29.43;20.80;;;;;;;;;;5093779;28;20528;-70
2022/03/31 11:19:55;;;;;;;35.77;21.00;;;;;;;;;;5094346;28;20498;-70
2022/03/31 11:22:24;;;;;;;24.97;17.40;;;;;;;;;;5093870;28;20833;-70
2022/03/31 11:24:51;;;;;;;24.23;18.13;;;;;;;;;;5093880;28;20490;-70
2022/03/31 11:27:29;;;;;;;22.93;16.13;;;;;;;;;;5094036;28;20447;-70
2022/03/31 11:29:59;;;;;;;20.90;13.63;;;;;;;;;;5094250;28;20446;-70
2022/03/31 11:32:35;;;;;;;21.77;15.07;;;;;;;;;;5094119;28;20455;-70
2022/03/31 11:35:02;;;;;;;23.87;16.17;;;;;;;;;;5094005;28;20442;-70
2022/03/31 11:37:29;;;;;;;23.30;14.93;;;;;;;;;;5093741;28;20451;-70
2022/03/31 11:39:56;;;;;;;22.60;15.60;;;;;;;;;;5093682;28;20461;-70
2022/03/31 11:42:23;;;;;;;23.43;17.07;;;;;;;;;;5093995;28;20958;-70
2022/03/31 11:44:50;;;;;;;28.80;18.47;;;;;;;;;;5093822;28;20478;-70
2022/03/31 11:47:20;;;;;;;28.20;18.20;;;;;;;;;;5093523;28;20462;-70
2022/03/31 11:49:59;;;;;;;27.30;18.90;;;;;;;;;;5093758;28;20455;-70
2022/03/31 11:52:30;;;;;;;26.83;17.30;;;;;;;;;;5093548;28;20431;-70
2022/03/31 11:55:00;;;;;;;28.87;20.37;;;;;;;;;;5093698;28;20913;-70
2022/03/31 11:57:28;;;;;;;28.63;17.83;;;;;;;;;;5093479;28;20490;-70
2022/03/31 11:59:55;;;;;;;29.70;19.13;;;;;;;;;;5093652;28;20520;-70
2022/03/31 12:02:22;;;;;;;26.60;18.23;;;;;;;;;;5093577;28;20450;-70
2022/03/31 12:04:50;;;;;;;30.83;19.60;;;;;;;;;;5093092;28;20489;-70
2022/03/31 12:07:19;;;;;;;24.70;17.20;;;;;;;;;;5093520;28;20957;-70
2022/03/31 12:09:48;;;;;;;25.77;17.03;;;;;;;;;;5093308;28;20508;-70
2022/03/31 12:12:16;;;;;;;25.43;18.20;;;;;;;;;;5093412;28;20451;-70
2022/03/31 12:14:53;;;;;;;26.53;16.10;;;;;;;;;;5093395;28;20446;-70
2022/03/31 12:17:20;;;;;;;26.60;16.47;;;;;;;;;;5093073;28;20434;-70
2022/03/31 12:19:47;;;;;;;22.40;16.40;;;;;;;;;;5093457;28;20977;-70
2022/03/31 12:22:15;;;;;;;20.53;13.47;;;;;;;;;;5093090;28;20463;-70
2022/03/31 12:24:52;;;;;;;19.40;12.30;;;;;;;;;;5093343;28;20536;-70
2022/03/31 12:27:19;;;;;;;19.40;12.03;;;;;;;;;;5093342;28;20462;-70
2022/03/31 12:29:57;;;;;;;16.83;11.90;;;;;;;;;;5093406;28;20451;-70
2022/03/31 12:32:25;;;;;;;20.20;13.53;;;;;;;;;;5093097;28;20435;-70
2022/03/31 12:34:55;;;;;;;23.07;15.03;;;;;;;;;;5093287;28;20449;-70
2022/03/31 12:37:29;;;;;;;18.13;13.07;;;;;;;;;;5093311;28;20454;-70
2022/03/31 12:39:58;;;;;;;20.43;15.10;;;;;;;;;;5093275;28;20888;-70
2022/03/31 12:42:26;;;;;;;28.60;18.60;;;;;;;;;;5093354;28;20447;-70
2022/03/31 12:44:53;;;;;;;14.70;10.47;;;;;;;;;;5093002;28;20493;-70
2022/03/31 12:47:22;;;;;;;92.10;65.70;;;;;;;;;;5093203;28;20931;-70
2022/03/31 12:49:50;;;;;;;30.70;20.33;;;;;;;;;;5093231;28;20451;-70
2022/03/31 12:52:19;;;;;;;221.63;162.17;;;;;;;;;;5096212;28;20481;-70
2022/03/31 12:54:49;;;;;;;130.07;81.37;;;;;;;;;;5097274;28;20431;-71
2022/03/31 12:57:20;;;;;;;87.63;61.40;;;;;;;;;;5088299;28;20864;-70
2022/03/31 12:59:57;;;;;;;43.93;33.13;;;;;;;;;;5074398;28;20435;-70
2022/03/31 13:02:25;;;;;;;18.97;12.83;;;;;;;;;;5075378;28;20436;-70
2022/03/31 13:04:52;;;;;;;15.00;11.60;;;;;;;;;;5075156;28;20484;-69
2022/03/31 13:07:27;;;;;;;18.33;12.50;;;;;;;;;;5075142;28;20903;-70
2022/03/31 13:09:54;;;;;;;25.40;18.60;;;;;;;;;;5074953;28;20442;-70
2022/03/31 13:12:23;;;;;;;19.20;14.50;;;;;;;;;;5074911;28;20684;-70
2022/03/31 13:14:50;;;;;;;22.00;19.17;;;;;;;;;;5075098;28;20459;-70
2022/03/31 13:17:19;;;;;;;20.57;14.27;;;;;;;;;;5074982;28;20455;-70
2022/03/31 13:19:47;;;;;;;27.53;21.90;;;;;;;;;;5075081;28;20521;-69
2022/03/31 13:22:15;;;;;;;28.43;23.93;;;;;;;;;;5074850;28;20510;-70
2022/03/31 13:24:55;;;;;;;26.53;20.00;;;;;;;;;;5073925;28;20499;-69
2022/03/31 13:27:25;;;;;;;18.63;14.33;;;;;;;;;;5074544;28;20436;-70
2022/03/31 13:29:53;;;;;;;22.70;15.50;;;;;;;;;;5074467;28;20463;-70
2022/03/31 13:32:20;;;;;;;21.63;14.63;;;;;;;;;;5074634;28;20447;-70
2022/03/31 13:34:48;;;;;;;23.33;15.07;;;;;;;;;;5074841;28;20917;-70
2022/03/31 13:37:16;;;;;;;25.30;18.43;;;;;;;;;;5074653;28;20450;-70
2022/03/31 13:39:44;;;;;;;24.70;16.60;;;;;;;;;;5074700;28;20447;-70
2022/03/31 13:42:11;;;;;;;28.30;20.33;;;;;;;;;;5074421;28;20452;-70
2022/03/31 13:44:41;;;;;;;25.10;19.30;;;;;;;;;;5074119;28;20487;-70
2022/03/31 13:47:08;;;;;;;42.73;26.87;;;;;;;;;;5074229;28;20448;-70
2022/03/31 13:49:36;;;;;;;122.83;76.87;;;;;;;;;;5074034;28;20483;-70
2022/03/31 13:52:03;;;;;;;148.30;100.83;;;;;;;;;;5073942;28;20455;-70
2022/03/31 13:54:34;;;;;;;99.73;74.03;;;;;;;;;;5074350;28;20458;-70
2022/03/31 13:57:02;;;;;;;61.60;53.27;;;;;;;;;;5075314;28;20909;-70
2022/03/31 14:02:16;;;;;;;32.10;23.30;;;;;;;;;;5075155;28;20419;-70
2022/03/31 14:04:44;;;;;;;33.57;25.90;;;;;;;;;;5075414;28;20533;-71
2022/03/31 14:07:12;;;;;;;24.43;17.10;;;;;;;;;;5075153;28;20451;-70
2022/03/31 14:09:40;;;;;;;26.97;18.80;;;;;;;;;;5075351;28;20478;-70
2022/03/31 14:12:09;;;;;;;23.43;16.80;;;;;;;;;;5075389;28;20459;-70
2022/03/31 14:14:36;;;;;;;23.50;15.97;;;;;;;;;;5075299;28;20482;-70
2022/03/31 14:17:03;;;;;;;20.07;16.27;;;;;;;;;;5075054;28;20460;-70
2022/03/31 14:19:34;;;;;;;19.50;14.40;;;;;;;;;;5075240;28;20499;-70
2022/03/31 14:22:02;;;;;;;46.43;25.87;;;;;;;;;;5075023;28;20463;-70
2022/03/31 14:24:30;;;;;;;25.80;17.97;;;;;;;;;;5074691;28;20458;-71
2022/03/31 14:26:58;;;;;;;23.63;15.93;;;;;;;;;;5075068;28;20889;-70